Time;durP1;ratioP1;P1;durP2;ratioP2;P2;SDS_P1;SDS_P2;PMS_P1;PMS_P2;Temp;Humidity;BMP_temperature;BMP_pressure;BME280_temperature;BME280_humidity;BME280_pressure;Samples;Min_cycle;Max_cycle;Signal;HPM_P1;HPM_P2
2022/05/06 00:01:55;;;;;;;0.00;0.00;;;13.80;95.30;;;;;;4153253;28;20048;-70
2022/05/06 00:04:17;;;;;;;0.00;0.00;;;13.80;95.20;;;;;;4180684;28;20044;-68
2022/05/06 00:06:42;;;;;;;0.00;0.00;;;13.80;95.20;;;;;;4167210;28;20045;-70
2022/05/06 00:09:07;;;;;;;0.00;0.00;;;13.70;95.30;;;;;;4153092;28;20084;-72
2022/05/06 00:11:31;;;;;;;0.00;0.00;;;13.70;95.40;;;;;;4166945;28;20049;-72
2022/05/06 00:13:53;;;;;;;0.00;0.00;;;13.60;95.40;;;;;;4167371;28;20376;-71
2022/05/06 00:16:22;;;;;;;0.00;0.00;;;13.70;95.40;;;;;;4166659;28;20041;-71
2022/05/06 00:18:58;;;;;;;0.00;0.00;;;13.70;95.40;;;;;;4167510;28;20057;-69
2022/05/06 00:21:25;;;;;;;0.00;0.00;;;13.70;95.20;;;;;;4167597;28;20088;-71
2022/05/06 00:23:57;;;;;;;0.00;0.00;;;13.60;95.10;;;;;;4166576;28;20073;-69
2022/05/06 00:26:25;;;;;;;0.00;0.00;;;13.60;95.00;;;;;;4166433;28;20049;-69
2022/05/06 00:28:49;;;;;;;0.00;0.00;;;13.70;95.00;;;;;;4167213;28;20060;-71
2022/05/06 00:31:17;;;;;;;0.00;0.00;;;13.60;95.00;;;;;;4167111;28;20039;-72
2022/05/06 00:33:46;;;;;;;0.00;0.00;;;13.60;95.10;;;;;;4153555;28;20499;-71
2022/05/06 00:36:10;;;;;;;0.00;0.00;;;13.60;95.30;;;;;;4167147;28;20057;-70
2022/05/06 00:38:42;;;;;;;0.00;0.00;;;13.70;95.00;;;;;;4166317;28;20045;-70
2022/05/06 00:41:07;;;;;;;0.00;0.00;;;13.70;94.90;;;;;;4167136;28;20067;-70
2022/05/06 00:43:29;;;;;;;0.00;0.00;;;13.60;94.90;;;;;;4166296;28;20407;-70
2022/05/06 00:46:00;;;;;;;0.00;0.00;;;13.60;95.00;;;;;;4166290;28;20053;-71
2022/05/06 00:48:27;;;;;;;0.00;0.00;;;13.70;94.90;;;;;;4166161;28;20103;-71
2022/05/06 00:50:55;;;;;;;0.00;0.00;;;13.70;94.90;;;;;;4166150;28;20057;-70
2022/05/06 00:53:17;;;;;;;0.00;0.00;;;13.70;94.90;;;;;;4152441;28;20052;-71
2022/05/06 00:55:44;;;;;;;0.00;0.00;;;13.60;95.00;;;;;;4152956;28;20053;-70
2022/05/06 00:58:10;;;;;;;0.00;0.00;;;13.60;95.10;;;;;;4152382;28;20046;-70
2022/05/06 01:00:35;;;;;;;0.00;0.00;;;13.50;95.20;;;;;;4166215;28;20140;-71
2022/05/06 01:02:57;;;;;;;0.00;0.00;;;13.60;95.20;;;;;;4165979;28;20088;-71
2022/05/06 01:05:24;;;;;;;0.00;0.00;;;13.50;95.30;;;;;;4166084;28;20057;-69
2022/05/06 01:07:53;;;;;;;0.00;0.00;;;13.60;95.50;;;;;;4165738;28;20091;-69
2022/05/06 01:10:21;;;;;;;0.00;0.00;;;13.60;95.50;;;;;;4165873;28;20060;-71
2022/05/06 01:12:45;;;;;;;0.00;0.00;;;13.50;95.50;;;;;;4152143;28;20699;-70
2022/05/06 01:15:28;;;;;;;0.00;0.00;;;13.50;95.60;;;;;;4166418;28;20106;-72
2022/05/06 01:18:02;;;;;;;0.00;0.00;;;13.50;95.70;;;;;;4165689;28;20095;-70
2022/05/06 01:20:37;;;;;;;0.00;0.00;;;13.50;95.50;;;;;;4165691;28;20151;-69
2022/05/06 01:23:04;;;;;;;0.00;0.00;;;13.60;95.60;;;;;;4165592;28;20057;-71
2022/05/06 01:25:30;;;;;;;0.00;0.00;;;13.60;95.60;;;;;;4165629;28;20122;-70
2022/05/06 01:27:56;;;;;;;0.00;0.00;;;13.70;95.60;;;;;;4152015;28;20518;-71
2022/05/06 01:30:37;;;;;;;0.00;0.00;;;13.70;95.60;;;;;;4165612;28;20042;-72
2022/05/06 01:33:11;;;;;;;0.00;0.00;;;13.80;95.60;;;;;;4165541;28;20049;-73
2022/05/06 01:35:50;;;;;;;0.00;0.00;;;13.70;95.50;;;;;;4166148;28;20127;-71
2022/05/06 01:38:32;;;;;;;0.00;0.00;;;13.60;95.50;;;;;;4152013;28;20058;-72
2022/05/06 01:41:01;;;;;;;0.00;0.00;;;13.50;95.60;;;;;;4151528;28;20080;-72
2022/05/06 01:43:45;;;;;;;0.00;0.00;;;13.50;95.70;;;;;;4139168;28;20054;-70
2022/05/06 01:46:13;;;;;;;0.00;0.00;;;13.60;95.70;;;;;;4151487;28;20066;-68
2022/05/06 01:48:42;;;;;;;0.00;0.00;;;13.60;95.60;;;;;;4151360;28;20080;-70
2022/05/06 01:51:10;;;;;;;0.00;0.00;;;13.70;95.60;;;;;;4151483;28;20041;-69
2022/05/06 01:53:35;;;;;;;0.00;0.00;;;13.70;95.60;;;;;;4151524;28;20053;-70
2022/05/06 01:56:02;;;;;;;0.00;0.00;;;13.70;95.50;;;;;;4151034;28;20045;-68
2022/05/06 01:58:31;;;;;;;0.00;0.00;;;13.80;95.50;;;;;;4165403;28;20538;-72
2022/05/06 02:00:58;;;;;;;0.00;0.00;;;13.70;95.50;;;;;;4151800;28;20084;-73
2022/05/06 02:06:11;;;;;;;0.00;0.00;;;13.60;95.60;;;;;;4151429;28;20412;-70
2022/05/06 02:08:38;;;;;;;0.00;0.00;;;13.60;95.70;;;;;;4151132;28;20139;-70
2022/05/06 02:11:06;;;;;;;0.00;0.00;;;13.60;95.60;;;;;;4164981;28;20108;-69
2022/05/06 02:13:34;;;;;;;0.00;0.00;;;13.60;95.60;;;;;;4164968;28;20476;-70
2022/05/06 02:16:24;;;;;;;0.00;0.00;;;13.60;95.50;;;;;;4165279;28;20137;-72
2022/05/06 02:19:09;;;;;;;0.00;0.00;;;13.50;95.50;;;;;;4157380;28;20136;-70
2022/05/06 02:22:02;;;;;;;0.00;0.00;;;13.40;95.60;;;;;;4135693;28;20069;-70
2022/05/06 02:24:50;;;;;;;0.00;0.00;;;13.50;95.60;;;;;;4164690;28;20091;-70
2022/05/06 02:27:32;;;;;;;0.00;0.00;;;13.60;95.50;;;;;;4164452;28;20419;-73
2022/05/06 02:35:28;;;;;;;0.00;0.00;;;13.70;95.50;;;;;;4164543;28;20050;-70
2022/05/06 02:37:52;;;;;;;0.00;0.00;;;13.80;95.40;;;;;;4150870;28;20050;-70
2022/05/06 02:40:15;;;;;;;0.00;0.00;;;13.80;95.40;;;;;;4151039;28;20140;-73
2022/05/06 02:42:37;;;;;;;0.00;0.00;;;13.80;95.40;;;;;;4150883;28;20224;-70
2022/05/06 02:45:00;;;;;;;0.00;0.00;;;13.80;95.40;;;;;;4151121;28;20388;-72
2022/05/06 02:47:25;;;;;;;0.00;0.00;;;13.80;95.50;;;;;;4178470;28;20080;-71
2022/05/06 02:49:50;;;;;;;0.00;0.00;;;13.80;95.50;;;;;;4150957;28;20050;-71
2022/05/06 02:52:12;;;;;;;0.00;0.00;;;13.90;95.50;;;;;;4151120;28;20057;-70
2022/05/06 02:54:37;;;;;;;0.00;0.00;;;13.80;95.40;;;;;;4151212;28;20046;-71
2022/05/06 02:57:02;;;;;;;0.00;0.00;;;13.80;95.40;;;;;;4151169;28;20053;-72
2022/05/06 02:59:25;;;;;;;0.00;0.00;;;13.90;95.40;;;;;;4164892;28;20162;-71
2022/05/06 03:01:48;;;;;;;0.00;0.00;;;13.80;95.40;;;;;;4150876;28;20052;-71
2022/05/06 03:04:12;;;;;;;0.00;0.00;;;13.70;95.40;;;;;;4164779;28;20060;-71
2022/05/06 03:06:42;;;;;;;0.00;0.00;;;13.70;95.30;;;;;;4164561;28;20069;-72
2022/05/06 03:09:07;;;;;;;0.00;0.00;;;13.70;95.30;;;;;;4152552;28;20056;-73
2022/05/06 03:11:32;;;;;;;0.00;0.00;;;13.80;95.10;;;;;;4167798;28;20046;-72
2022/05/06 03:14:02;;;;;;;0.00;0.00;;;13.80;95.10;;;;;;4141222;28;20033;-71
2022/05/06 03:16:32;;;;;;;0.00;0.00;;;13.70;95.10;;;;;;4167559;28;20148;-70
2022/05/06 03:19:00;;;;;;;0.00;0.00;;;13.60;95.10;;;;;;4181818;28;20056;-71
2022/05/06 03:21:24;;;;;;;0.00;0.00;;;13.40;95.30;;;;;;4153857;28;20062;-71
2022/05/06 03:23:53;;;;;;;0.00;0.00;;;13.30;95.60;;;;;;4167986;28;20064;-71
2022/05/06 03:26:18;;;;;;;0.00;0.00;;;13.40;95.70;;;;;;4153889;28;20046;-72
2022/05/06 03:28:48;;;;;;;0.00;0.00;;;13.50;95.60;;;;;;4167558;28;20503;-73
2022/05/06 03:31:18;;;;;;;0.00;0.00;;;13.50;95.50;;;;;;4167376;28;20049;-71
2022/05/06 03:33:54;;;;;;;0.00;0.00;;;13.50;95.70;;;;;;4153651;28;20132;-72
2022/05/06 03:36:22;;;;;;;0.00;0.00;;;13.60;95.40;;;;;;4153617;28;20044;-71
2022/05/06 03:38:52;;;;;;;0.00;0.00;;;13.60;95.30;;;;;;4167489;28;20092;-72
2022/05/06 03:41:19;;;;;;;0.00;0.00;;;13.60;95.30;;;;;;4153450;28;20108;-70
2022/05/06 03:43:45;;;;;;;0.00;0.00;;;13.70;95.30;;;;;;4153629;28;20081;-70
2022/05/06 03:46:19;;;;;;;0.00;0.00;;;13.60;95.20;;;;;;4153489;28;20045;-70
2022/05/06 03:48:42;;;;;;;0.00;0.00;;;13.60;95.20;;;;;;4153236;28;20133;-71
2022/05/06 03:51:20;;;;;;;0.00;0.00;;;13.50;95.20;;;;;;4153585;28;20049;-70
2022/05/06 03:53:48;;;;;;;0.00;0.00;;;13.50;95.30;;;;;;4153980;28;20223;-69
2022/05/06 03:56:10;;;;;;;0.00;0.00;;;13.40;95.20;;;;;;4153404;28;20104;-71
2022/05/06 03:58:39;;;;;;;0.00;0.00;;;13.50;95.20;;;;;;4153393;28;20426;-69
2022/05/06 04:01:07;;;;;;;0.00;0.00;;;13.50;95.20;;;;;;4153757;28;20139;-71
2022/05/06 04:03:35;;;;;;;0.00;0.00;;;13.50;95.10;;;;;;4153615;28;20112;-70
2022/05/06 04:05:58;;;;;;;0.00;0.00;;;13.50;95.00;;;;;;4153822;28;20053;-71
2022/05/06 04:08:20;;;;;;;0.00;0.00;;;13.60;95.00;;;;;;4153534;28;20548;-70
2022/05/06 04:10:47;;;;;;;0.00;0.00;;;13.60;94.90;;;;;;4153477;28;20168;-72
2022/05/06 04:13:12;;;;;;;0.00;0.00;;;13.60;95.00;;;;;;4139661;28;20093;-69
2022/05/06 04:15:36;;;;;;;0.00;0.00;;;13.60;95.10;;;;;;4153662;28;20085;-72
2022/05/06 04:18:02;;;;;;;0.00;0.00;;;13.60;95.20;;;;;;4167354;28;20045;-72
2022/05/06 04:23:31;;;;;;;0.00;0.00;;;13.50;95.50;;;;;;4153111;28;20092;-71
2022/05/06 04:26:06;;;;;;;0.00;0.00;;;13.40;95.50;;;;;;4167064;28;20469;-70
2022/05/06 04:28:33;;;;;;;0.00;0.00;;;13.50;95.60;;;;;;4140085;28;20104;-72
2022/05/06 04:30:58;;;;;;;0.00;0.00;;;13.50;95.50;;;;;;4166983;28;20107;-71
2022/05/06 04:33:25;;;;;;;0.00;0.00;;;13.60;95.50;;;;;;4152819;28;20404;-71
2022/05/06 04:35:50;;;;;;;0.00;0.00;;;13.60;95.60;;;;;;4139447;28;20133;-71
2022/05/06 04:38:20;;;;;;;0.00;0.00;;;13.50;95.60;;;;;;4153387;28;20046;-70
2022/05/06 04:40:43;;;;;;;0.00;0.00;;;13.50;95.60;;;;;;4153045;28;20172;-69
2022/05/06 04:43:09;;;;;;;0.00;0.00;;;13.50;95.60;;;;;;4140248;28;20062;-71
2022/05/06 04:45:42;;;;;;;0.00;0.00;;;13.50;95.50;;;;;;4153014;28;20469;-71
2022/05/06 04:48:08;;;;;;;0.00;0.00;;;13.40;95.90;;;;;;4152595;28;20046;-70
2022/05/06 04:50:36;;;;;;;0.00;0.00;;;13.40;95.80;;;;;;4125706;28;20405;-70
2022/05/06 04:53:05;;;;;;;0.00;0.00;;;13.40;95.70;;;;;;4152617;28;20080;-72
2022/05/06 04:55:31;;;;;;;0.00;0.00;;;13.40;95.50;;;;;;4152490;28;20428;-71
2022/05/06 04:58:00;;;;;;;0.00;0.00;;;13.20;95.60;;;;;;4152694;28;20112;-72
2022/05/06 05:00:23;;;;;;;0.00;0.00;;;13.10;95.80;;;;;;4152669;28;20053;-69
2022/05/06 05:02:45;;;;;;;0.00;0.00;;;13.00;96.00;;;;;;4166609;28;20057;-71
2022/05/06 05:05:10;;;;;;;0.00;0.00;;;13.00;96.10;;;;;;4152304;28;20041;-71
2022/05/06 05:07:36;;;;;;;0.00;0.00;;;13.10;96.10;;;;;;4138924;28;20458;-71
2022/05/06 05:10:06;;;;;;;0.00;0.00;;;13.30;96.00;;;;;;4152304;28;20054;-70
2022/05/06 05:12:31;;;;;;;0.00;0.00;;;13.30;95.90;;;;;;4166059;28;20123;-70
2022/05/06 05:14:53;;;;;;;0.00;0.00;;;13.30;96.00;;;;;;4179995;28;20151;-70
2022/05/06 05:17:20;;;;;;;0.00;0.00;;;13.30;96.00;;;;;;4152524;28;20444;-70
2022/05/06 05:19:48;;;;;;;0.00;0.00;;;13.40;96.00;;;;;;4152516;28;20516;-70
2022/05/06 05:22:10;;;;;;;0.00;0.00;;;13.40;96.00;;;;;;4166226;28;20052;-72
2022/05/06 05:24:36;;;;;;;0.00;0.00;;;13.50;96.20;;;;;;4165753;28;20068;-71
2022/05/06 05:26:58;;;;;;;0.00;0.00;;;13.60;95.90;;;;;;4165790;28;20104;-69
2022/05/06 05:29:25;;;;;;;0.00;0.00;;;13.60;95.90;;;;;;4152388;28;20054;-70
2022/05/06 05:31:52;;;;;;;0.00;0.00;;;13.50;95.80;;;;;;4164929;28;20128;-70
2022/05/06 05:34:15;;;;;;;0.00;0.00;;;13.50;95.90;;;;;;4152002;28;20489;-70
2022/05/06 05:36:38;;;;;;;0.00;0.00;;;13.50;95.80;;;;;;4165482;28;20064;-70
2022/05/06 05:39:02;;;;;;;0.00;0.00;;;13.50;95.80;;;;;;4151885;28;20065;-71
2022/05/06 05:41:27;;;;;;;0.00;0.00;;;13.50;95.80;;;;;;4155569;28;20540;-70
2022/05/06 05:49:21;;;;;;;0.00;0.00;;;13.50;95.80;;;;;;4151109;28;20049;-71
2022/05/06 05:51:46;;;;;;;0.00;0.00;;;13.60;95.70;;;;;;4164492;28;20054;-70
2022/05/06 05:54:09;;;;;;;0.00;0.00;;;13.60;95.70;;;;;;4137139;28;20097;-71
2022/05/06 05:56:32;;;;;;;0.00;0.00;;;13.60;95.70;;;;;;4150353;28;20049;-73
2022/05/06 05:58:55;;;;;;;0.00;0.00;;;13.60;95.80;;;;;;4150577;28;20049;-72
2022/05/06 06:01:21;;;;;;;0.00;0.00;;;13.60;95.80;;;;;;4150918;28;20553;-69
2022/05/06 06:03:44;;;;;;;0.00;0.00;;;13.70;95.70;;;;;;4164033;28;20136;-70
2022/05/06 06:06:10;;;;;;;0.00;0.00;;;13.60;95.60;;;;;;4137024;28;20046;-69
2022/05/06 06:08:33;;;;;;;0.00;0.00;;;13.70;95.60;;;;;;4136402;28;20125;-73
2022/05/06 06:11:01;;;;;;;0.00;0.00;;;13.60;95.60;;;;;;4164012;28;20550;-69
2022/05/06 06:13:30;;;;;;;0.00;0.00;;;13.70;95.60;;;;;;4163619;28;20095;-71
2022/05/06 06:15:53;;;;;;;0.00;0.00;;;13.70;95.60;;;;;;4177796;28;20072;-69
2022/05/06 06:18:26;;;;;;;0.00;0.00;;;13.70;95.70;;;;;;4158540;28;20084;-70
2022/05/06 06:20:50;;;;;;;0.00;0.00;;;13.70;95.80;;;;;;4167306;28;20140;-72
2022/05/06 06:23:12;;;;;;;0.00;0.00;;;13.70;95.70;;;;;;4147710;28;20050;-71
2022/05/06 06:25:37;;;;;;;0.00;0.00;;;13.80;95.60;;;;;;4138816;28;20492;-70
2022/05/06 06:28:00;;;;;;;0.00;0.00;;;13.80;95.50;;;;;;4150188;28;20057;-71
2022/05/06 06:30:23;;;;;;;0.00;0.00;;;13.80;95.50;;;;;;4163496;28;20045;-70
2022/05/06 06:32:52;;;;;;;0.00;0.00;;;13.70;95.40;;;;;;4150907;28;20162;-70
2022/05/06 06:35:18;;;;;;;0.00;0.00;;;13.80;95.40;;;;;;4163987;28;20141;-69
2022/05/06 06:37:48;;;;;;;0.00;0.00;;;13.70;95.30;;;;;;4150138;28;20054;-70
2022/05/06 06:40:14;;;;;;;0.00;0.00;;;13.60;95.70;;;;;;4149934;28;20042;-69
2022/05/06 06:42:41;;;;;;;0.00;0.00;;;13.60;95.90;;;;;;4164133;28;20059;-70
2022/05/06 06:45:23;;;;;;;0.00;0.00;;;13.50;95.90;;;;;;4155841;28;20144;-70
2022/05/06 06:48:14;;;;;;;0.00;0.00;;;13.50;96.20;;;;;;4158330;28;20053;-72
2022/05/06 06:50:53;;;;;;;0.00;0.00;;;13.60;96.10;;;;;;4163451;28;20056;-71
2022/05/06 06:53:17;;;;;;;0.00;0.00;;;13.60;95.90;;;;;;4177266;28;20057;-70
2022/05/06 06:55:44;;;;;;;0.00;0.00;;;13.70;95.90;;;;;;4163528;28;20049;-70
2022/05/06 06:58:08;;;;;;;0.00;0.00;;;13.70;95.80;;;;;;4163604;28;20155;-68
2022/05/06 07:00:31;;;;;;;0.00;0.00;;;13.70;95.90;;;;;;4149973;28;20061;-69
2022/05/06 07:02:57;;;;;;;0.00;0.00;;;13.70;96.00;;;;;;4163925;28;20084;-70
2022/05/06 07:05:25;;;;;;;0.00;0.00;;;13.80;95.80;;;;;;4163703;28;20502;-69
2022/05/06 07:13:32;;;;;;;0.00;0.00;;;13.60;95.50;;;;;;4177512;28;20043;-71
2022/05/06 07:15:56;;;;;;;0.00;0.00;;;13.50;95.50;;;;;;4163248;28;20077;-69
2022/05/06 07:18:18;;;;;;;0.00;0.00;;;13.40;95.60;;;;;;4149614;28;20073;-69
2022/05/06 07:20:42;;;;;;;0.00;0.00;;;13.30;95.70;;;;;;4163337;28;20053;-71
2022/05/06 07:23:04;;;;;;;0.00;0.00;;;13.30;95.90;;;;;;4164223;28;20081;-72
2022/05/06 07:25:26;;;;;;;0.00;0.00;;;13.40;96.10;;;;;;4163617;28;20045;-71
2022/05/06 07:27:49;;;;;;;0.00;0.00;;;13.50;95.80;;;;;;4163397;28;20081;-70
2022/05/06 07:30:11;;;;;;;0.00;0.00;;;13.70;95.90;;;;;;4149762;28;20041;-70
2022/05/06 07:32:37;;;;;;;0.00;0.00;;;13.80;95.80;;;;;;4149915;28;20045;-70
2022/05/06 07:35:02;;;;;;;0.00;0.00;;;13.80;95.60;;;;;;4177145;28;20407;-73
2022/05/06 07:37:24;;;;;;;0.00;0.00;;;13.70;95.50;;;;;;4163061;28;20361;-72
2022/05/06 07:39:49;;;;;;;0.00;0.00;;;13.70;95.40;;;;;;4160779;28;20053;-70
2022/05/06 07:42:12;;;;;;;0.00;0.00;;;13.70;95.30;;;;;;4133385;28;20124;-72
2022/05/06 07:44:36;;;;;;;0.00;0.00;;;13.80;95.30;;;;;;4161440;28;20045;-69
2022/05/06 07:47:00;;;;;;;0.00;0.00;;;13.80;95.10;;;;;;4146846;28;20164;-70
2022/05/06 07:49:25;;;;;;;0.00;0.00;;;13.80;94.90;;;;;;4160823;28;20045;-71
2022/05/06 07:51:52;;;;;;;0.00;0.00;;;13.80;95.10;;;;;;4133116;28;20044;-69
2022/05/06 07:54:13;;;;;;;0.00;0.00;;;13.80;95.20;;;;;;4147038;28;20385;-70
2022/05/06 07:56:40;;;;;;;0.00;0.00;;;13.70;95.30;;;;;;4149895;28;20073;-69
2022/05/06 07:59:05;;;;;;;0.00;0.00;;;13.70;95.30;;;;;;4136094;28;20084;-69
2022/05/06 08:06:53;;;;;;;0.00;0.00;;;13.80;95.30;;;;;;4163677;28;20076;-70
2022/05/06 08:09:15;;;;;;;0.00;0.00;;;13.80;95.40;;;;;;4136052;28;20050;-69
2022/05/06 08:11:39;;;;;;;0.00;0.00;;;13.80;95.60;;;;;;4136288;28;20139;-71
2022/05/06 08:14:04;;;;;;;0.00;0.00;;;13.90;95.50;;;;;;4135946;28;20397;-69
2022/05/06 08:16:28;;;;;;;0.00;0.00;;;13.80;95.50;;;;;;4163480;28;20156;-71
2022/05/06 08:18:52;;;;;;;0.00;0.00;;;13.80;95.60;;;;;;4163381;28;20053;-68
2022/05/06 08:21:14;;;;;;;0.00;0.00;;;13.90;95.40;;;;;;4150015;28;20144;-72
2022/05/06 08:23:38;;;;;;;0.00;0.00;;;14.10;95.30;;;;;;4149955;28;20456;-71
2022/05/06 08:26:05;;;;;;;0.00;0.00;;;14.10;95.10;;;;;;4162966;28;20137;-71
2022/05/06 08:28:29;;;;;;;0.00;0.00;;;14.20;95.00;;;;;;4136248;28;20530;-67
2022/05/06 08:30:52;;;;;;;0.00;0.00;;;14.20;94.90;;;;;;4162791;28;20057;-69
2022/05/06 08:33:14;;;;;;;0.00;0.00;;;14.20;94.90;;;;;;4149366;28;20127;-69
2022/05/06 08:35:36;;;;;;;0.00;0.00;;;14.20;94.80;;;;;;4162710;28;20074;-69
2022/05/06 08:38:01;;;;;;;0.00;0.00;;;14.30;94.90;;;;;;4163038;28;20534;-70
2022/05/06 08:40:25;;;;;;;0.00;0.00;;;14.30;94.90;;;;;;4135649;28;20050;-72
2022/05/06 08:42:49;;;;;;;0.00;0.00;;;14.30;94.80;;;;;;4135861;28;20054;-71
2022/05/06 08:50:51;;;;;;;;;;;14.30;94.60;;;;;;4136056;28;20077;-73
2022/05/06 08:53:15;;;;;;;0.00;0.00;;;14.20;94.70;;;;;;4135372;28;19925;-68
2022/05/06 08:55:40;;;;;;;0.00;0.00;;;14.20;94.80;;;;;;4135677;28;20049;-70
2022/05/06 08:58:02;;;;;;;0.00;0.00;;;14.20;94.80;;;;;;4149094;28;20416;-74
2022/05/06 09:00:28;;;;;;;0.00;0.00;;;14.10;94.80;;;;;;4162458;28;20129;-71
2022/05/06 09:02:52;;;;;;;0.00;0.00;;;14.10;94.80;;;;;;4162665;28;20053;-71
2022/05/06 09:05:19;;;;;;;0.00;0.00;;;14.10;94.80;;;;;;4135504;28;20050;-69
2022/05/06 09:07:56;;;;;;;0.00;0.00;;;14.20;94.80;;;;;;4135801;28;20084;-70
2022/05/06 09:10:20;;;;;;;0.00;0.00;;;14.30;94.90;;;;;;4149552;28;20374;-73
2022/05/06 09:12:51;;;;;;;0.00;0.00;;;14.20;94.90;;;;;;4135590;28;20054;-70
2022/05/06 09:18:02;;;;;;;0.00;0.00;;;14.30;94.60;;;;;;4135339;28;20148;-70
2022/05/06 09:20:28;;;;;;;0.00;0.00;;;14.30;94.60;;;;;;4162500;28;20100;-71
2022/05/06 09:22:55;;;;;;;0.00;0.00;;;14.30;94.60;;;;;;4162406;28;20455;-70
2022/05/06 09:25:46;;;;;;;0.00;0.00;;;14.20;94.60;;;;;;4135717;28;20088;-70
2022/05/06 09:28:20;;;;;;;0.00;0.00;;;14.20;94.90;;;;;;4135173;28;20116;-69
2022/05/06 09:30:58;;;;;;;0.00;0.00;;;14.30;94.80;;;;;;4135600;28;20108;-69
2022/05/06 09:33:34;;;;;;;0.00;0.00;;;14.20;94.80;;;;;;4135040;28;20058;-70
2022/05/06 09:36:00;;;;;;;0.00;0.00;;;14.30;95.10;;;;;;4148814;28;20046;-71
2022/05/06 09:38:24;;;;;;;0.00;0.00;;;14.30;95.10;;;;;;4162041;28;20049;-71
2022/05/06 09:40:49;;;;;;;0.00;0.00;;;14.50;95.10;;;;;;4148459;28;20046;-70
2022/05/06 09:43:17;;;;;;;0.00;0.00;;;14.50;95.00;;;;;;4162366;28;20075;-69
2022/05/06 09:45:43;;;;;;;0.00;0.00;;;14.30;95.00;;;;;;4162246;28;20056;-72
2022/05/06 09:48:08;;;;;;;0.00;0.00;;;14.30;95.30;;;;;;4148352;28;20089;-69
2022/05/06 09:50:43;;;;;;;0.00;0.00;;;14.10;95.70;;;;;;4121573;28;20057;-70
2022/05/06 09:53:13;;;;;;;0.00;0.00;;;14.30;95.90;;;;;;4134580;28;20130;-70
2022/05/06 09:55:41;;;;;;;0.00;0.00;;;14.40;95.90;;;;;;4121344;28;20346;-69
2022/05/06 09:58:08;;;;;;;0.00;0.00;;;14.50;95.60;;;;;;4148244;28;20104;-70
2022/05/06 10:00:38;;;;;;;0.00;0.00;;;14.60;95.60;;;;;;4161964;28;20057;-69
2022/05/06 10:03:03;;;;;;;0.00;0.00;;;14.70;95.60;;;;;;4121106;28;20058;-70
2022/05/06 10:05:27;;;;;;;0.00;0.00;;;14.70;95.70;;;;;;4120972;28;20089;-71
2022/05/06 10:07:55;;;;;;;0.00;0.00;;;14.70;95.60;;;;;;4148282;28;20100;-73
2022/05/06 10:10:21;;;;;;;0.00;0.00;;;14.60;95.70;;;;;;4134608;28;20050;-72
2022/05/06 10:12:53;;;;;;;0.00;0.00;;;14.60;95.80;;;;;;4161634;28;20065;-69
2022/05/06 10:15:20;;;;;;;0.00;0.00;;;14.70;96.10;;;;;;4161453;28;20446;-69
2022/05/06 10:17:56;;;;;;;0.00;0.00;;;14.70;95.60;;;;;;4147414;28;20058;-69
2022/05/06 10:20:41;;;;;;;0.00;0.00;;;14.70;95.70;;;;;;4134390;28;20129;-68
2022/05/06 10:23:09;;;;;;;0.00;0.00;;;14.90;95.60;;;;;;4134092;28;20050;-70
2022/05/06 10:25:43;;;;;;;0.00;0.00;;;14.90;95.60;;;;;;4161343;28;20581;-70
2022/05/06 10:34:06;;;;;;;0.00;0.00;;;15.00;95.40;;;;;;4161412;28;20057;-72
2022/05/06 10:36:53;;;;;;;0.00;0.00;;;15.00;95.30;;;;;;4133974;28;20042;-70
2022/05/06 10:39:25;;;;;;;0.00;0.00;;;15.10;95.00;;;;;;4134198;28;20396;-69
2022/05/06 10:42:14;;;;;;;0.00;0.00;;;15.00;95.10;;;;;;4161232;28;20099;-74
2022/05/06 10:44:37;;;;;;;0.00;0.00;;;15.10;95.20;;;;;;4147437;28;20050;-69
2022/05/06 10:47:03;;;;;;;0.00;0.00;;;15.10;95.10;;;;;;4147251;28;20050;-70
2022/05/06 10:49:34;;;;;;;0.00;0.00;;;15.10;95.00;;;;;;4161250;28;20064;-71
2022/05/06 10:52:16;;;;;;;0.00;0.00;;;15.10;94.90;;;;;;4161293;28;20193;-70
2022/05/06 10:54:41;;;;;;;0.00;0.00;;;15.00;94.50;;;;;;4161626;28;20049;-67
2022/05/06 10:57:07;;;;;;;0.00;0.00;;;14.90;94.90;;;;;;4162066;28;20045;-69
2022/05/06 10:59:54;;;;;;;0.00;0.00;;;14.90;94.90;;;;;;4134610;28;20330;-67
2022/05/06 11:02:18;;;;;;;0.00;0.00;;;15.00;95.10;;;;;;4161653;28;20107;-70
2022/05/06 11:04:43;;;;;;;0.00;0.00;;;15.00;95.00;;;;;;4133782;28;20042;-69
2022/05/06 11:07:13;;;;;;;0.00;0.00;;;14.80;94.70;;;;;;4161392;28;20590;-69
2022/05/06 11:09:35;;;;;;;0.00;0.00;;;14.70;94.90;;;;;;4161279;28;20057;-71
2022/05/06 11:11:59;;;;;;;0.00;0.00;;;14.70;95.00;;;;;;4161027;28;20100;-68
2022/05/06 11:14:25;;;;;;;0.00;0.00;;;14.70;95.00;;;;;;4147561;28;20046;-68
2022/05/06 11:16:49;;;;;;;0.00;0.00;;;14.80;95.00;;;;;;4147199;28;20045;-69
2022/05/06 11:19:33;;;;;;;0.00;0.00;;;14.80;95.00;;;;;;4120030;28;20121;-69
2022/05/06 11:22:10;;;;;;;0.00;0.00;;;14.70;95.10;;;;;;4161147;28;20490;-69
2022/05/06 11:24:32;;;;;;;0.00;0.00;;;14.70;95.40;;;;;;4133570;28;20414;-69
2022/05/06 11:27:20;;;;;;;0.00;0.00;;;14.70;95.60;;;;;;4147327;28;20061;-71
2022/05/06 11:29:55;;;;;;;0.00;0.00;;;14.60;95.70;;;;;;4134700;28;20144;-69
2022/05/06 11:32:20;;;;;;;0.00;0.00;;;14.80;95.90;;;;;;4123225;28;20053;-70
2022/05/06 11:34:47;;;;;;;0.00;0.00;;;14.80;95.70;;;;;;4164498;28;20080;-70
2022/05/06 11:37:19;;;;;;;0.00;0.00;;;14.90;95.70;;;;;;4150778;28;20077;-71
2022/05/06 11:39:41;;;;;;;0.00;0.00;;;14.90;95.90;;;;;;4123219;28;20047;-68
2022/05/06 11:42:24;;;;;;;0.00;0.00;;;15.00;96.00;;;;;;4164180;28;20077;-67
2022/05/06 11:47:39;;;;;;;0.00;0.00;;;15.30;95.50;;;;;;4163527;28;20115;-70
2022/05/06 11:50:06;;;;;;;0.00;0.00;;;15.20;95.30;;;;;;4163578;28;20042;-69
2022/05/06 11:52:35;;;;;;;0.00;0.00;;;15.10;95.40;;;;;;4150870;28;20049;-69
2022/05/06 11:54:57;;;;;;;0.00;0.00;;;15.00;95.60;;;;;;4175941;28;20049;-69
2022/05/06 11:57:23;;;;;;;0.00;0.00;;;15.10;95.80;;;;;;4170370;28;20052;-70
2022/05/06 11:59:47;;;;;;;0.00;0.00;;;15.00;95.80;;;;;;4183642;28;20384;-69
2022/05/06 12:02:11;;;;;;;0.00;0.00;;;15.10;95.80;;;;;;4183877;28;20492;-69
2022/05/06 12:04:34;;;;;;;0.00;0.00;;;15.30;95.70;;;;;;4169497;28;20463;-68
2022/05/06 12:06:58;;;;;;;0.00;0.00;;;15.40;95.50;;;;;;4155878;28;20084;-70
2022/05/06 12:09:25;;;;;;;0.00;0.00;;;15.60;95.20;;;;;;4183430;28;20087;-70
2022/05/06 12:12:05;;;;;;;0.00;0.00;;;15.70;95.20;;;;;;4183178;28;20083;-70
2022/05/06 12:14:32;;;;;;;0.00;0.00;;;15.90;95.10;;;;;;4155979;28;20045;-70
2022/05/06 12:16:59;;;;;;;0.00;0.00;;;16.10;94.90;;;;;;4183459;28;20503;-68
2022/05/06 12:19:37;;;;;;;0.00;0.00;;;16.20;94.30;;;;;;4183606;28;20051;-70
2022/05/06 12:22:15;;;;;;;0.00;0.00;;;16.10;93.80;;;;;;4183531;28;20140;-69
2022/05/06 12:24:45;;;;;;;0.00;0.00;;;16.00;94.00;;;;;;4169645;28;20102;-70
2022/05/06 12:27:10;;;;;;;0.00;0.00;;;15.90;93.70;;;;;;4169373;28;20088;-71
2022/05/06 12:29:36;;;;;;;0.00;0.00;;;15.80;93.90;;;;;;4183050;28;20060;-71
2022/05/06 12:32:03;;;;;;;0.00;0.00;;;15.70;94.10;;;;;;4182914;28;20361;-71
2022/05/06 12:34:33;;;;;;;0.00;0.00;;;15.80;94.20;;;;;;4182843;28;20080;-71
2022/05/06 12:37:10;;;;;;;0.00;0.00;;;15.90;94.10;;;;;;4182786;28;20073;-69
2022/05/06 12:39:41;;;;;;;0.00;0.00;;;15.90;93.90;;;;;;4182820;28;20045;-68
2022/05/06 12:42:13;;;;;;;0.00;0.00;;;16.00;93.70;;;;;;4169426;28;20045;-70
2022/05/06 12:44:40;;;;;;;0.00;0.00;;;15.90;93.70;;;;;;4183244;28;20044;-70
2022/05/06 12:50:13;;;;;;;0.00;0.00;;;15.60;94.00;;;;;;4182710;28;20135;-68
2022/05/06 12:52:37;;;;;;;0.00;0.00;;;15.70;94.00;;;;;;4182424;28;20083;-71
2022/05/06 12:54:59;;;;;;;0.00;0.00;;;15.80;93.80;;;;;;4182783;28;20041;-69
2022/05/06 12:57:24;;;;;;;0.00;0.00;;;15.80;93.80;;;;;;4168825;28;20057;-70
2022/05/06 12:59:48;;;;;;;0.00;0.00;;;15.80;93.70;;;;;;4169082;28;20085;-70
2022/05/06 13:02:10;;;;;;;0.00;0.00;;;15.80;93.60;;;;;;4168743;28;20040;-71
2022/05/06 13:04:37;;;;;;;0.00;0.00;;;15.70;93.30;;;;;;4141586;28;20057;-69
2022/05/06 13:07:00;;;;;;;0.00;0.00;;;15.50;93.40;;;;;;4168688;28;20064;-69
2022/05/06 13:09:24;;;;;;;0.00;0.00;;;15.30;93.70;;;;;;4182216;28;20048;-69
2022/05/06 13:11:46;;;;;;;0.00;0.00;;;15.30;94.10;;;;;;4182178;28;20044;-70
2022/05/06 13:14:08;;;;;;;0.00;0.00;;;15.40;94.10;;;;;;4182200;28;20049;-72
2022/05/06 13:16:30;;;;;;;0.00;0.00;;;15.40;94.30;;;;;;4182169;28;20045;-69
2022/05/06 13:18:53;;;;;;;0.00;0.00;;;15.50;94.30;;;;;;4182379;28;20059;-71
2022/05/06 13:21:15;;;;;;;0.00;0.00;;;15.50;94.20;;;;;;4182119;28;20056;-69
2022/05/06 13:23:42;;;;;;;0.00;0.00;;;15.40;94.20;;;;;;4168326;28;20065;-70
2022/05/06 13:26:08;;;;;;;0.00;0.00;;;15.40;94.30;;;;;;4182226;28;20052;-71
2022/05/06 13:28:32;;;;;;;0.00;0.00;;;15.30;94.40;;;;;;4182165;28;20065;-70
2022/05/06 13:30:54;;;;;;;0.00;0.00;;;15.20;94.80;;;;;;4181783;28;20052;-69
2022/05/06 13:33:21;;;;;;;0.00;0.00;;;15.10;94.70;;;;;;4154617;28;20424;-72
2022/05/06 13:35:44;;;;;;;0.00;0.00;;;15.10;94.50;;;;;;4182028;28;20470;-69
2022/05/06 13:38:10;;;;;;;0.00;0.00;;;15.20;94.30;;;;;;4182061;28;20047;-71